Time;durP1;ratioP1;P1;durP2;ratioP2;P2;SDS_P1;SDS_P2;PMS_P1;PMS_P2;Temp;Humidity;BMP_temperature;BMP_pressure;BME280_temperature;BME280_humidity;BME280_pressure;Samples;Min_cycle;Max_cycle;Signal;HPM_P1;HPM_P2
2022/06/08 00:01:20;;;;;;;2.13;2.00;;;15.10;99.90;;;;;;5016967;28;20182;-78
2022/06/08 00:03:54;;;;;;;3.37;2.10;;;15.00;99.90;;;;;;5016899;28;20286;-77
2022/06/08 00:06:20;;;;;;;2.47;2.00;;;15.00;99.90;;;;;;5018187;28;20171;-78
2022/06/08 00:08:47;;;;;;;3.20;2.13;;;15.00;99.90;;;;;;5017320;28;20218;-77
2022/06/08 00:11:13;;;;;;;2.87;2.00;;;15.00;99.90;;;;;;5033706;28;20370;-77
2022/06/08 00:13:40;;;;;;;3.57;1.90;;;15.00;99.90;;;;;;5016710;28;20195;-77
2022/06/08 00:16:07;;;;;;;2.07;1.90;;;15.10;99.90;;;;;;5017092;28;20232;-78
2022/06/08 00:18:32;;;;;;;3.03;2.00;;;15.10;99.90;;;;;;5016827;28;20215;-76
2022/06/08 00:20:58;;;;;;;3.20;2.00;;;15.10;99.90;;;;;;5033348;28;20186;-78
2022/06/08 00:23:24;;;;;;;4.33;2.10;;;15.00;99.90;;;;;;5033397;28;20199;-78
2022/06/08 00:25:50;;;;;;;2.23;2.03;;;15.00;99.90;;;;;;5033302;28;20179;-78
2022/06/08 00:28:16;;;;;;;2.73;2.00;;;15.00;99.90;;;;;;5017004;28;20278;-78
2022/06/08 00:30:42;;;;;;;4.33;2.00;;;15.00;99.90;;;;;;5017213;28;20190;-78
2022/06/08 00:33:08;;;;;;;2.40;1.80;;;15.00;99.90;;;;;;5016787;28;20210;-78
2022/06/08 00:35:34;;;;;;;2.07;1.60;;;14.90;99.90;;;;;;5016513;28;20638;-77
2022/06/08 00:37:59;;;;;;;2.93;1.70;;;14.90;99.90;;;;;;5015962;28;20213;-78
2022/06/08 00:40:53;;;;;;;1.87;1.77;;;15.00;99.90;;;;;;5016748;28;20183;-78
2022/06/08 00:45:46;;;;;;;1.67;1.57;;;15.00;99.90;;;;;;5075655;22;20230;-77
2022/06/08 00:48:12;;;;;;;3.50;1.90;;;15.00;99.90;;;;;;5053847;28;20178;-77
2022/06/08 00:50:44;;;;;;;1.77;1.67;;;15.00;99.90;;;;;;5036977;28;20178;-77
2022/06/08 00:53:13;;;;;;;2.00;1.80;;;14.90;99.90;;;;;;5036869;28;20234;-77
2022/06/08 00:55:41;;;;;;;3.27;1.70;;;15.00;99.90;;;;;;5053438;28;20342;-77
2022/06/08 00:58:23;;;;;;;2.40;1.97;;;15.00;99.90;;;;;;5070053;28;20209;-77
2022/06/08 01:00:50;;;;;;;2.40;1.90;;;15.10;99.90;;;;;;5070135;28;20193;-77
2022/06/08 01:03:17;;;;;;;1.97;1.70;;;15.10;99.90;;;;;;5053225;28;20176;-77
2022/06/08 01:06:03;;;;;;;3.80;2.50;;;15.20;99.90;;;;;;5036853;28;20205;-77
2022/06/08 01:08:53;;;;;;;3.23;2.27;;;15.20;99.90;;;;;;5054531;28;20205;-77
2022/06/08 01:11:41;;;;;;;3.33;2.10;;;15.20;99.90;;;;;;5069847;28;20620;-77
2022/06/08 01:14:11;;;;;;;2.87;2.60;;;15.20;99.90;;;;;;5053583;28;20570;-77
2022/06/08 01:16:40;;;;;;;3.43;2.20;;;15.10;99.90;;;;;;5069840;28;20174;-77
2022/06/08 01:19:07;;;;;;;4.63;2.27;;;15.20;99.90;;;;;;5020162;28;20208;-77
2022/06/08 01:21:33;;;;;;;2.40;2.20;;;15.30;99.90;;;;;;5069509;28;20185;-77
2022/06/08 01:24:01;;;;;;;2.73;2.20;;;15.30;99.90;;;;;;5069538;28;20190;-77
2022/06/08 01:26:58;;;;;;;2.23;2.03;;;15.30;99.90;;;;;;5069552;28;20219;-77
2022/06/08 01:29:44;;;;;;;2.37;2.10;;;15.40;99.90;;;;;;5069672;28;20189;-77
2022/06/08 01:32:33;;;;;;;3.13;2.23;;;15.50;99.90;;;;;;5069520;28;20585;-77
2022/06/08 01:35:06;;;;;;;3.13;2.10;;;15.40;99.90;;;;;;5069268;28;20193;-77
2022/06/08 01:37:49;;;;;;;2.97;2.30;;;15.40;99.90;;;;;;5069227;28;20181;-77
2022/06/08 01:40:43;;;;;;;2.73;2.20;;;15.40;99.90;;;;;;5069237;28;20719;-77
2022/06/08 01:43:32;;;;;;;3.83;2.27;;;15.40;99.90;;;;;;5053807;28;20627;-77
2022/06/08 01:46:22;;;;;;;2.40;2.20;;;15.40;99.90;;;;;;5053725;28;20236;-77
2022/06/08 01:49:00;;;;;;;3.80;2.20;;;15.40;99.90;;;;;;5069141;28;20177;-77
2022/06/08 01:51:35;;;;;;;3.17;2.27;;;15.40;99.90;;;;;;5068980;28;20582;-78
2022/06/08 01:54:19;;;;;;;2.60;2.33;;;15.40;99.90;;;;;;5068085;28;20193;-77
2022/06/08 01:57:12;;;;;;;6.03;2.27;;;15.40;99.90;;;;;;5068944;28;20660;-77
2022/06/08 01:59:54;;;;;;;2.80;2.23;;;15.40;99.90;;;;;;5069002;28;20229;-77
2022/06/08 02:02:41;;;;;;;2.93;2.37;;;15.40;99.90;;;;;;5068629;28;20722;-77
2022/06/08 02:05:16;;;;;;;2.70;2.20;;;15.40;99.90;;;;;;5068509;28;20193;-77
2022/06/08 02:07:52;;;;;;;2.33;2.00;;;15.50;99.90;;;;;;5068720;28;20667;-77
2022/06/08 02:10:44;;;;;;;2.60;2.23;;;15.50;99.90;;;;;;5068729;28;20174;-77
2022/06/08 02:13:37;;;;;;;3.03;2.13;;;15.50;99.90;;;;;;5053055;28;20170;-77
2022/06/08 02:16:22;;;;;;;2.90;2.23;;;15.50;99.90;;;;;;5068572;28;20592;-77
2022/06/08 02:18:53;;;;;;;2.73;2.43;;;15.50;99.90;;;;;;5068571;28;20193;-77
2022/06/08 02:21:23;;;;;;;2.93;2.30;;;15.40;99.90;;;;;;5068400;28;20170;-77
2022/06/08 02:23:59;;;;;;;3.07;2.53;;;15.30;99.90;;;;;;5068252;28;20185;-77
2022/06/08 02:26:34;;;;;;;2.63;2.20;;;15.30;99.90;;;;;;5019902;28;20177;-77
2022/06/08 02:29:08;;;;;;;3.63;2.90;;;15.30;99.90;;;;;;5068338;28;20219;-77
2022/06/08 02:31:42;;;;;;;5.03;2.77;;;15.20;99.90;;;;;;5068105;28;20188;-77
2022/06/08 02:34:29;;;;;;;3.27;2.47;;;15.20;99.90;;;;;;5068009;28;20193;-77
2022/06/08 02:37:20;;;;;;;2.70;2.50;;;15.20;99.90;;;;;;5068302;28;20264;-77
2022/06/08 02:39:51;;;;;;;2.83;2.10;;;15.20;99.90;;;;;;5067903;28;20752;-77
2022/06/08 02:42:23;;;;;;;2.83;2.27;;;15.10;99.90;;;;;;5068079;28;20234;-77
2022/06/08 02:44:53;;;;;;;4.00;2.30;;;15.10;99.90;;;;;;5067876;28;20203;-78
2022/06/08 02:47:30;;;;;;;2.40;2.20;;;15.00;99.90;;;;;;5068118;28;20169;-77
2022/06/08 02:50:17;;;;;;;2.33;2.00;;;14.90;99.90;;;;;;5068117;28;20184;-78
2022/06/08 02:52:45;;;;;;;3.77;2.30;;;14.90;99.90;;;;;;5067833;28;20263;-77
2022/06/08 02:55:29;;;;;;;2.33;2.13;;;14.70;99.90;;;;;;5034675;28;20576;-77
2022/06/08 02:57:58;;;;;;;2.97;2.47;;;14.70;99.90;;;;;;5067893;28;20181;-77
2022/06/08 03:00:41;;;;;;;2.67;2.47;;;14.70;99.90;;;;;;5067998;28;20173;-77
2022/06/08 03:03:09;;;;;;;4.13;2.40;;;14.70;99.90;;;;;;5067642;28;20187;-77
2022/06/08 03:06:01;;;;;;;4.40;2.77;;;14.70;99.90;;;;;;5050877;28;20704;-77
2022/06/08 03:08:32;;;;;;;3.43;2.70;;;14.60;99.90;;;;;;5067994;28;20176;-77
2022/06/08 03:11:01;;;;;;;5.90;2.37;;;14.60;99.90;;;;;;5067781;28;20223;-77
2022/06/08 03:13:37;;;;;;;3.57;2.50;;;14.70;99.90;;;;;;5034306;28;20266;-77
2022/06/08 03:16:06;;;;;;;3.00;2.47;;;14.70;99.90;;;;;;5052111;28;20184;-77
2022/06/08 03:18:32;;;;;;;3.37;2.57;;;14.70;99.90;;;;;;5050877;28;20201;-77
2022/06/08 03:20:59;;;;;;;2.83;2.63;;;14.70;99.90;;;;;;5067797;28;20166;-77
2022/06/08 03:23:25;;;;;;;4.20;2.60;;;14.60;99.90;;;;;;5050695;28;20173;-77
2022/06/08 03:25:51;;;;;;;3.17;2.50;;;14.70;99.90;;;;;;5051122;28;20185;-77
2022/06/08 03:28:18;;;;;;;2.93;2.57;;;14.70;99.90;;;;;;5051969;28;20174;-77
2022/06/08 03:30:44;;;;;;;7.00;2.80;;;14.70;99.90;;;;;;5050829;28;20205;-77
2022/06/08 03:33:11;;;;;;;4.47;2.50;;;14.60;99.90;;;;;;5033962;28;20223;-77
2022/06/08 03:35:37;;;;;;;3.33;2.50;;;14.60;99.90;;;;;;5034360;28;20198;-77
2022/06/08 03:38:04;;;;;;;4.40;2.67;;;14.70;99.90;;;;;;5051716;28;20219;-77
2022/06/08 03:40:30;;;;;;;3.43;2.70;;;14.60;99.90;;;;;;5017923;28;20165;-77
2022/06/08 03:42:55;;;;;;;2.87;2.57;;;14.60;99.90;;;;;;5034073;28;20170;-77
2022/06/08 03:45:22;;;;;;;3.80;2.60;;;14.60;99.90;;;;;;5017508;28;20213;-77
2022/06/08 03:47:51;;;;;;;3.80;2.57;;;14.60;99.90;;;;;;5050730;28;20170;-77
2022/06/08 03:50:22;;;;;;;2.97;2.60;;;14.60;99.90;;;;;;5050929;28;20281;-77
2022/06/08 03:52:56;;;;;;;2.77;2.13;;;14.70;99.90;;;;;;5034007;28;20644;-77
2022/06/08 03:55:23;;;;;;;5.33;2.40;;;14.70;99.90;;;;;;5067151;28;20193;-77
2022/06/08 03:57:50;;;;;;;2.80;2.60;;;14.70;99.90;;;;;;5067141;28;20174;-78
2022/06/08 04:00:17;;;;;;;4.97;2.70;;;14.60;99.90;;;;;;5050696;28;20236;-77
2022/06/08 04:02:46;;;;;;;3.97;2.60;;;14.70;99.90;;;;;;5034026;28;20174;-77
2022/06/08 04:05:12;;;;;;;3.07;2.60;;;14.70;99.90;;;;;;5067264;28;20196;-77
2022/06/08 04:07:38;;;;;;;3.20;2.90;;;14.70;99.90;;;;;;5033933;28;20174;-77
2022/06/08 04:10:05;;;;;;;3.87;3.10;;;14.70;99.90;;;;;;5033806;28;20178;-77
2022/06/08 04:12:31;;;;;;;3.53;3.20;;;14.70;99.90;;;;;;5066771;28;20169;-77
2022/06/08 04:14:57;;;;;;;3.27;2.97;;;14.70;99.90;;;;;;5050546;28;20193;-77
2022/06/08 04:17:22;;;;;;;5.20;3.63;;;14.80;99.90;;;;;;5017708;28;20173;-77
2022/06/08 04:19:48;;;;;;;3.90;3.60;;;14.80;99.90;;;;;;5054184;28;20220;-77
2022/06/08 04:22:16;;;;;;;4.93;4.53;;;14.90;99.90;;;;;;5070488;28;20170;-77
2022/06/08 04:24:42;;;;;;;5.10;4.60;;;15.00;99.90;;;;;;5070575;28;20193;-77
2022/06/08 04:27:09;;;;;;;4.60;4.20;;;15.00;99.90;;;;;;5055326;28;20162;-77
2022/06/08 04:29:34;;;;;;;6.40;4.90;;;15.00;99.90;;;;;;5021116;28;20185;-77
2022/06/08 04:32:00;;;;;;;4.93;4.50;;;15.10;99.90;;;;;;5020559;28;20273;-77
2022/06/08 04:34:26;;;;;;;5.10;4.40;;;15.10;99.90;;;;;;5055083;28;20194;-77
2022/06/08 04:36:52;;;;;;;4.70;4.30;;;15.10;99.90;;;;;;5070494;28;20265;-77
2022/06/08 04:39:18;;;;;;;4.80;4.40;;;15.10;99.90;;;;;;5036995;28;20285;-78
2022/06/08 04:41:44;;;;;;;4.40;3.83;;;15.10;99.90;;;;;;5020606;28;20170;-78
2022/06/08 04:44:10;;;;;;;5.70;5.10;;;15.10;99.90;;;;;;5070415;28;20235;-77
2022/06/08 04:46:36;;;;;;;5.37;4.73;;;15.10;99.90;;;;;;5020635;28;20177;-77
2022/06/08 04:49:03;;;;;;;6.73;5.40;;;15.00;99.90;;;;;;5054776;28;20567;-78
2022/06/08 04:51:29;;;;;;;6.80;5.20;;;15.00;99.90;;;;;;5020743;28;20208;-78
2022/06/08 04:53:55;;;;;;;6.17;5.43;;;15.00;99.90;;;;;;5020414;28;20201;-78
2022/06/08 04:56:21;;;;;;;7.27;6.10;;;15.10;99.90;;;;;;5053657;28;20182;-78
2022/06/08 04:58:46;;;;;;;6.73;6.03;;;15.10;99.90;;;;;;5070011;28;20267;-78
2022/06/08 05:01:12;;;;;;;6.83;5.97;;;15.20;99.90;;;;;;5020368;28;20170;-78
2022/06/08 05:03:37;;;;;;;7.27;6.57;;;15.20;99.90;;;;;;5053146;28;20174;-78
2022/06/08 05:06:03;;;;;;;7.23;6.50;;;15.30;99.90;;;;;;5020296;28;20204;-78
2022/06/08 05:08:29;;;;;;;7.70;7.00;;;15.40;99.90;;;;;;5036608;28;20273;-78
2022/06/08 05:10:55;;;;;;;7.43;6.63;;;15.40;99.90;;;;;;5053395;28;20182;-78
2022/06/08 05:13:22;;;;;;;7.30;6.33;;;15.50;99.90;;;;;;5069937;28;20174;-78
2022/06/08 05:15:49;;;;;;;7.67;6.90;;;15.60;99.90;;;;;;5036726;28;20181;-78
2022/06/08 05:18:18;;;;;;;7.70;6.37;;;15.70;99.90;;;;;;5052830;28;20178;-78
2022/06/08 05:20:45;;;;;;;7.90;6.60;;;15.70;99.90;;;;;;5070426;28;20192;-79
2022/06/08 05:23:19;;;;;;;8.60;6.30;;;15.70;99.90;;;;;;5071605;28;20177;-78
2022/06/08 05:25:45;;;;;;;7.60;6.80;;;15.60;99.90;;;;;;5054348;28;20201;-79
2022/06/08 05:28:13;;;;;;;7.17;6.47;;;15.70;99.90;;;;;;5054380;28;20268;-79
2022/06/08 05:30:39;;;;;;;7.17;5.77;;;15.70;99.90;;;;;;5070511;28;20176;-77
2022/06/08 05:33:06;;;;;;;5.87;5.37;;;15.80;99.90;;;;;;5054397;28;20174;-78
2022/06/08 05:35:32;;;;;;;6.50;5.80;;;15.80;99.90;;;;;;5069347;28;20198;-76
2022/06/08 05:37:58;;;;;;;8.00;6.00;;;15.80;99.90;;;;;;5052839;28;20181;-77
2022/06/08 05:40:25;;;;;;;7.23;5.87;;;15.80;99.90;;;;;;5070278;28;20199;-79
2022/06/08 05:42:51;;;;;;;6.27;5.67;;;15.80;99.90;;;;;;5069812;28;20178;-80
2022/06/08 05:45:21;;;;;;;6.87;6.17;;;15.90;99.90;;;;;;5057020;28;20224;-78
2022/06/08 05:47:47;;;;;;;8.13;6.30;;;15.90;99.90;;;;;;5029716;28;20181;-78
2022/06/08 05:50:13;;;;;;;9.63;5.50;;;15.90;99.90;;;;;;5062237;28;20185;-78
2022/06/08 05:52:39;;;;;;;6.57;5.40;;;15.90;99.90;;;;;;5083342;28;20182;-79
2022/06/08 05:55:06;;;;;;;7.37;5.60;;;16.00;99.90;;;;;;5081070;28;20197;-80
2022/06/08 05:57:31;;;;;;;6.10;5.33;;;16.00;99.90;;;;;;5040154;28;20281;-78
2022/06/08 05:59:57;;;;;;;5.40;4.87;;;15.90;99.90;;;;;;5019104;28;20296;-77
2022/06/08 06:02:23;;;;;;;6.33;5.10;;;16.00;99.90;;;;;;5019168;28;20178;-78
2022/06/08 06:04:48;;;;;;;5.63;5.10;;;16.00;99.90;;;;;;5052282;28;20206;-77
2022/06/08 06:07:14;;;;;;;7.43;5.40;;;16.10;99.90;;;;;;5052113;28;20324;-78
2022/06/08 06:09:41;;;;;;;5.70;5.20;;;16.10;99.90;;;;;;5068859;28;20185;-78
2022/06/08 06:12:07;;;;;;;5.77;5.27;;;16.10;99.90;;;;;;5068329;28;20189;-78
2022/06/08 06:14:33;;;;;;;6.17;5.20;;;16.20;99.90;;;;;;5052067;28;20266;-77
2022/06/08 06:16:59;;;;;;;6.27;5.33;;;16.30;99.90;;;;;;5051833;28;20566;-78
2022/06/08 06:19:25;;;;;;;6.07;5.47;;;16.40;99.90;;;;;;5035181;28;20208;-78
2022/06/08 06:21:51;;;;;;;5.57;5.03;;;16.40;99.90;;;;;;5068613;28;20170;-78
2022/06/08 06:24:17;;;;;;;5.80;4.70;;;16.60;99.90;;;;;;5035373;28;20203;-77
2022/06/08 06:26:43;;;;;;;5.80;4.80;;;16.60;99.90;;;;;;5051195;28;20185;-77
2022/06/08 06:29:10;;;;;;;6.03;4.83;;;16.70;99.90;;;;;;5035481;28;20181;-77
2022/06/08 06:31:52;;;;;;;6.17;4.53;;;16.80;99.90;;;;;;5052764;28;20169;-77
2022/06/08 06:34:22;;;;;;;4.73;4.30;;;16.70;99.90;;;;;;5051623;28;20276;-77
2022/06/08 06:36:48;;;;;;;5.40;4.73;;;16.70;99.90;;;;;;5052883;28;20260;-77
2022/06/08 06:39:14;;;;;;;5.00;4.60;;;16.70;99.90;;;;;;5051488;28;20201;-78
2022/06/08 06:41:41;;;;;;;5.07;4.57;;;16.70;99.90;;;;;;5067613;28;20228;-77
2022/06/08 06:44:07;;;;;;;4.87;4.47;;;16.70;99.90;;;;;;5085085;22;20601;-77
2022/06/08 06:46:33;;;;;;;5.37;4.87;;;16.80;99.90;;;;;;5011020;28;20323;-76
2022/06/08 06:48:58;;;;;;;6.13;5.40;;;16.70;99.90;;;;;;4995390;28;20185;-76
2022/06/08 06:51:24;;;;;;;6.20;5.60;;;16.80;99.90;;;;;;4995314;28;20605;-77
2022/06/08 06:53:49;;;;;;;5.87;5.27;;;16.80;99.90;;;;;;4978961;28;20286;-77
2022/06/08 06:56:15;;;;;;;7.10;5.77;;;16.90;99.90;;;;;;4995284;28;20206;-77
2022/06/08 06:58:41;;;;;;;6.33;5.73;;;17.00;99.90;;;;;;5011567;28;20227;-77
2022/06/08 07:01:07;;;;;;;6.40;5.50;;;17.00;99.90;;;;;;5011564;28;20193;-77
2022/06/08 07:03:33;;;;;;;6.20;5.60;;;17.00;99.90;;;;;;5011588;28;20225;-77
2022/06/08 07:05:59;;;;;;;6.60;6.00;;;16.90;99.90;;;;;;4995039;28;20214;-77
2022/06/08 07:08:25;;;;;;;5.87;5.00;;;16.90;99.90;;;;;;5011523;28;20641;-77
2022/06/08 07:13:35;;;;;;;4.73;4.30;;;17.40;99.90;;;;;;5011336;28;20302;-77
2022/06/08 07:16:01;;;;;;;4.33;3.83;;;17.50;99.90;;;;;;5011323;28;20716;-77
2022/06/08 07:18:27;;;;;;;5.03;3.57;;;17.40;99.90;;;;;;5011268;28;20199;-76
2022/06/08 07:20:53;;;;;;;4.87;3.77;;;17.40;99.90;;;;;;5011243;28;20179;-76
2022/06/08 07:23:19;;;;;;;4.63;4.00;;;17.50;99.90;;;;;;5011119;28;20277;-76
2022/06/08 07:25:44;;;;;;;6.27;4.37;;;17.40;99.90;;;;;;5011144;28;20283;-76
2022/06/08 07:28:10;;;;;;;3.93;3.20;;;17.60;99.90;;;;;;5011423;28;20198;-77
2022/06/08 07:30:36;;;;;;;3.97;2.67;;;17.80;99.90;;;;;;4994731;28;20179;-77
2022/06/08 07:33:02;;;;;;;3.50;3.10;;;17.90;99.90;;;;;;4994643;28;20171;-77
2022/06/08 07:35:28;;;;;;;4.17;2.90;;;17.80;99.90;;;;;;5011189;28;20191;-77
2022/06/08 07:37:54;;;;;;;2.93;2.60;;;17.90;99.90;;;;;;5011022;28;20175;-77
2022/06/08 07:40:19;;;;;;;3.70;2.80;;;17.90;99.90;;;;;;5010993;28;20203;-77
2022/06/08 07:42:45;;;;;;;4.10;2.60;;;18.10;99.90;;;;;;4994455;28;20190;-77
2022/06/08 07:45:12;;;;;;;3.23;2.47;;;18.20;99.90;;;;;;5011025;28;20215;-77
2022/06/08 07:49:36;;;;;;;3.53;2.50;;;18.50;99.90;;;;;;5011102;28;20175;-77
2022/06/08 07:50:25;;;;;;;4.17;2.80;;;18.70;99.90;;;;;;5011866;28;20175;-77
2022/06/08 07:52:51;;;;;;;3.33;2.37;;;18.70;99.90;;;;;;5011618;28;20641;-77
2022/06/08 07:55:16;;;;;;;2.60;2.40;;;18.80;99.90;;;;;;4998838;28;20201;-77
2022/06/08 07:57:42;;;;;;;3.73;2.57;;;18.90;99.90;;;;;;4998634;28;20183;-77
2022/06/08 08:00:10;;;;;;;3.90;2.80;;;18.80;99.90;;;;;;4998588;28;20241;-77
2022/06/08 08:02:36;;;;;;;3.80;2.70;;;18.90;99.90;;;;;;4998528;28;20677;-77
2022/06/08 08:05:01;;;;;;;2.77;2.50;;;19.00;99.90;;;;;;5016266;28;20201;-77
2022/06/08 08:07:27;;;;;;;4.27;2.60;;;19.20;99.90;;;;;;4998667;28;20226;-77
2022/06/08 08:09:53;;;;;;;2.90;2.60;;;19.20;99.90;;;;;;4998933;28;20194;-77
2022/06/08 08:12:18;;;;;;;3.27;2.13;;;19.10;99.90;;;;;;4998768;28;20183;-77
2022/06/08 08:14:44;;;;;;;2.97;2.20;;;19.00;99.90;;;;;;4998869;28;20209;-77
2022/06/08 08:17:10;;;;;;;3.47;2.27;;;19.00;99.90;;;;;;5014966;28;20198;-77
2022/06/08 08:19:39;;;;;;;3.07;2.17;;;19.10;99.90;;;;;;4998442;28;20221;-77
2022/06/08 08:22:06;;;;;;;2.37;2.10;;;19.20;99.90;;;;;;5016059;28;20176;-77
2022/06/08 08:24:32;;;;;;;4.43;2.17;;;19.30;99.90;;;;;;5014710;28;20194;-77
2022/06/08 08:26:58;;;;;;;4.50;2.50;;;19.00;99.90;;;;;;4998616;28;20202;-77
2022/06/08 08:29:24;;;;;;;3.80;2.30;;;18.80;99.90;;;;;;5014592;28;20555;-77
2022/06/08 08:31:50;;;;;;;3.70;2.37;;;18.50;99.90;;;;;;4998350;28;20179;-77
2022/06/08 08:34:16;;;;;;;2.97;2.30;;;18.50;99.90;;;;;;5014610;28;20199;-77
2022/06/08 08:36:41;;;;;;;3.27;2.60;;;18.50;99.90;;;;;;4998205;28;20236;-77
2022/06/08 08:39:08;;;;;;;3.50;2.53;;;18.50;99.90;;;;;;4998055;28;20226;-77
2022/06/08 08:44:31;;;;;;;4.53;2.50;;;18.60;99.90;;;;;;5014698;28;20575;-77
2022/06/08 08:47:13;;;;;;;3.00;2.10;;;18.70;99.90;;;;;;5014450;28;20185;-77
2022/06/08 08:49:55;;;;;;;4.30;2.53;;;18.60;99.90;;;;;;5015369;28;20171;-77
2022/06/08 08:52:27;;;;;;;2.73;2.10;;;18.60;99.90;;;;;;5014393;28;20286;-77
2022/06/08 08:55:27;;;;;;;2.77;1.90;;;18.60;99.90;;;;;;5013929;28;20732;-77
2022/06/08 08:58:08;;;;;;;2.77;1.90;;;18.60;99.90;;;;;;4990254;28;20214;-77
2022/06/08 09:00:39;;;;;;;4.57;1.90;;;18.70;99.90;;;;;;5013923;28;20684;-77
2022/06/08 09:03:46;;;;;;;2.33;2.00;;;18.60;99.90;;;;;;5013545;28;20183;-77
2022/06/08 09:06:13;;;;;;;2.40;1.50;;;18.50;99.90;;;;;;5001087;28;20653;-77
2022/06/08 09:08:42;;;;;;;2.70;1.57;;;18.40;99.90;;;;;;5013835;28;20187;-77
2022/06/08 09:11:19;;;;;;;2.37;1.70;;;18.40;99.90;;;;;;5013749;28;20237;-77
2022/06/08 09:14:07;;;;;;;1.77;1.50;;;18.40;99.90;;;;;;5013736;28;20179;-77
2022/06/08 09:16:42;;;;;;;2.83;1.67;;;18.50;99.90;;;;;;4997308;28;20202;-77
2022/06/08 09:19:29;;;;;;;1.80;1.50;;;18.80;99.90;;;;;;4997436;28;20217;-77
2022/06/08 09:21:54;;;;;;;2.40;1.47;;;19.10;99.90;;;;;;4997296;28;20273;-77
2022/06/08 09:24:22;;;;;;;2.60;1.50;;;19.50;99.90;;;;;;5013410;28;20286;-77
2022/06/08 09:26:56;;;;;;;1.47;1.27;;;19.50;99.90;;;;;;5013465;28;20186;-77
2022/06/08 09:29:26;;;;;;;1.57;1.27;;;19.40;99.90;;;;;;5013360;28;20179;-77
2022/06/08 09:31:53;;;;;;;2.10;1.47;;;19.70;99.90;;;;;;5013213;28;20185;-77
2022/06/08 09:34:32;;;;;;;2.50;1.50;;;20.10;99.90;;;;;;5013283;28;20195;-77
2022/06/08 09:37:08;;;;;;;2.17;1.40;;;20.40;99.90;;;;;;5013311;28;20229;-77
2022/06/08 09:39:35;;;;;;;1.87;1.50;;;20.70;99.90;;;;;;5014109;28;20567;-77
2022/06/08 09:42:11;;;;;;;2.85;1.40;;;20.90;99.90;;;;;;5014019;28;20555;-77
2022/06/08 09:44:49;;;;;;;2.47;1.77;;;21.00;99.90;;;;;;4999191;28;20687;-77
2022/06/08 09:53:37;;;;;;;2.40;1.40;;;20.80;99.90;;;;;;5014138;28;20209;-77
2022/06/08 09:56:11;;;;;;;2.03;1.30;;;20.50;99.90;;;;;;5014303;28;20199;-78
2022/06/08 09:59:04;;;;;;;1.73;1.30;;;20.30;99.90;;;;;;5013427;28;20591;-78
2022/06/08 10:01:39;;;;;;;1.40;1.30;;;20.20;99.90;;;;;;5009399;28;20653;-77
2022/06/08 10:04:23;;;;;;;3.78;1.52;;;20.10;99.90;;;;;;5014134;28;20201;-77
2022/06/08 10:07:07;;;;;;;1.75;1.50;;;19.90;99.90;;;;;;5012363;28;20175;-77
2022/06/08 10:10:10;;;;;;;2.38;1.30;;;19.90;99.90;;;;;;5012500;28;20214;-77
2022/06/08 10:12:58;;;;;;;1.83;1.50;;;19.90;99.90;;;;;;5012261;28;20179;-77
2022/06/08 10:15:27;;;;;;;2.22;1.33;;;19.70;99.90;;;;;;5012104;28;20280;-77
2022/06/08 10:18:27;;;;;;;3.97;1.30;;;19.60;99.90;;;;;;5012944;28;20175;-77
2022/06/08 10:21:13;;;;;;;2.70;1.30;;;19.60;99.90;;;;;;5013516;28;20194;-77
2022/06/08 10:24:09;;;;;;;1.53;1.30;;;19.60;99.90;;;;;;4997857;28;20172;-77
2022/06/08 10:26:43;;;;;;;1.40;1.30;;;19.80;99.90;;;;;;5012946;28;20159;-77
2022/06/08 10:29:26;;;;;;;2.10;1.23;;;19.90;99.90;;;;;;5013865;28;20179;-77
2022/06/08 10:32:08;;;;;;;1.73;1.43;;;20.00;99.90;;;;;;5012334;28;20205;-77
2022/06/08 10:34:35;;;;;;;1.67;1.30;;;20.10;99.90;;;;;;5013635;28;20198;-77
2022/06/08 10:37:27;;;;;;;1.50;1.40;;;20.30;99.90;;;;;;4996265;28;20310;-77
2022/06/08 10:39:53;;;;;;;1.80;1.40;;;20.20;99.90;;;;;;4996723;28;20206;-77
2022/06/08 10:45:23;;;;;;;2.57;1.73;;;19.90;99.90;;;;;;5013439;28;20261;-77
2022/06/08 10:48:04;;;;;;;2.60;1.80;;;19.90;99.90;;;;;;5012149;28;20175;-77
2022/06/08 10:56:38;;;;;;;2.73;1.37;;;19.60;99.90;;;;;;5013694;28;20198;-77
2022/06/08 10:59:07;;;;;;;2.27;1.30;;;19.50;99.90;;;;;;5012263;28;20632;-77
2022/06/08 11:01:52;;;;;;;1.80;1.30;;;19.40;99.90;;;;;;5012228;28;20209;-77
2022/06/08 11:04:27;;;;;;;4.00;1.60;;;19.40;99.90;;;;;;5012263;28;20191;-77
2022/06/08 11:07:07;;;;;;;4.33;1.67;;;19.50;99.90;;;;;;5013093;28;20167;-77
2022/06/08 11:09:34;;;;;;;3.27;1.60;;;19.50;99.90;;;;;;5011757;28;20249;-77
2022/06/08 11:12:27;;;;;;;2.33;1.50;;;19.50;99.90;;;;;;5011634;28;20637;-77
2022/06/08 11:14:58;;;;;;;2.53;1.40;;;19.40;99.90;;;;;;4985961;28;20251;-77
2022/06/08 11:17:53;;;;;;;3.90;1.40;;;19.40;99.90;;;;;;5011750;28;20564;-77
2022/06/08 11:20:27;;;;;;;1.77;1.40;;;19.40;99.90;;;;;;5011939;28;20202;-77
2022/06/08 11:23:05;;;;;;;3.00;1.70;;;19.40;99.90;;;;;;5011540;28;20166;-77
2022/06/08 11:25:49;;;;;;;2.60;1.43;;;19.50;99.90;;;;;;5011668;28;20201;-78
2022/06/08 11:28:29;;;;;;;1.67;1.50;;;19.60;99.90;;;;;;5011732;28;20286;-79
2022/06/08 11:31:11;;;;;;;2.30;1.67;;;19.70;99.90;;;;;;5011403;28;20171;-78
2022/06/08 11:34:26;;;;;;;1.60;1.50;;;19.80;99.90;;;;;;4994976;28;20175;-78
2022/06/08 11:37:13;;;;;;;5.17;1.70;;;19.90;99.90;;;;;;5011253;28;20175;-78
2022/06/08 11:39:51;;;;;;;2.40;1.53;;;20.00;99.90;;;;;;5011242;28;20202;-78
2022/06/08 11:42:35;;;;;;;2.13;1.50;;;20.10;99.90;;;;;;5010757;28;20607;-78
2022/06/08 11:45:25;;;;;;;1.83;1.50;;;20.10;99.90;;;;;;5010582;28;20261;-78
2022/06/08 11:48:14;;;;;;;2.60;1.40;;;20.20;99.90;;;;;;5011312;28;20171;-78
2022/06/08 11:50:52;;;;;;;2.30;1.33;;;20.30;99.90;;;;;;5011168;28;20213;-78
2022/06/08 11:53:39;;;;;;;1.50;1.40;;;20.30;99.90;;;;;;5010988;28;20177;-78
2022/06/08 11:56:40;;;;;;;2.38;1.50;;;20.30;99.90;;;;;;5010588;28;20665;-78
2022/06/08 11:59:16;;;;;;;2.10;1.38;;;20.40;99.90;;;;;;5012302;28;20265;-78
2022/06/08 12:01:49;;;;;;;5.20;1.40;;;20.60;99.90;;;;;;4996323;28;20179;-78
2022/06/08 12:04:19;;;;;;;1.83;1.48;;;20.90;99.90;;;;;;5011100;28;20249;-78
2022/06/08 12:06:46;;;;;;;2.40;1.25;;;21.10;99.90;;;;;;4994838;28;20175;-78
2022/06/08 12:09:18;;;;;;;2.25;1.40;;;21.40;99.90;;;;;;5010892;28;20171;-78
2022/06/08 12:11:50;;;;;;;1.50;1.40;;;21.40;99.90;;;;;;5012122;28;20167;-78
2022/06/08 12:14:36;;;;;;;1.50;1.20;;;21.40;99.90;;;;;;5010851;28;20199;-78
2022/06/08 12:17:17;;;;;;;1.88;1.30;;;21.60;99.90;;;;;;5012182;28;20178;-78
2022/06/08 12:19:55;;;;;;;2.08;1.50;;;21.40;99.90;;;;;;5011479;28;20226;-78
2022/06/08 12:22:27;;;;;;;2.20;1.25;;;21.40;99.90;;;;;;4994770;28;20187;-78
2022/06/08 12:25:22;;;;;;;2.03;1.60;;;21.40;99.90;;;;;;5010797;28;20191;-78
2022/06/08 12:28:09;;;;;;;2.08;1.40;;;21.20;99.90;;;;;;5010860;28;20186;-78
2022/06/08 12:30:57;;;;;;;1.55;1.40;;;21.30;99.90;;;;;;5010813;28;20206;-78
2022/06/08 12:33:26;;;;;;;2.17;1.10;;;21.20;99.90;;;;;;5010799;28;20558;-78
2022/06/08 12:36:20;;;;;;;2.45;1.40;;;21.10;99.90;;;;;;4994728;28;20195;-78
2022/06/08 12:39:15;;;;;;;2.42;1.40;;;20.90;99.90;;;;;;5012540;28;20329;-78
2022/06/08 12:41:45;;;;;;;2.42;1.33;;;20.60;99.90;;;;;;5013740;28;20265;-78
2022/06/08 12:44:16;;;;;;;3.25;1.42;;;20.50;99.90;;;;;;5014477;28;20245;-78
2022/06/08 12:46:56;;;;;;;2.45;1.27;;;20.20;99.90;;;;;;5014109;28;20233;-78
2022/06/08 12:49:38;;;;;;;2.00;1.40;;;20.00;99.90;;;;;;5014353;28;20175;-78
2022/06/08 12:52:23;;;;;;;2.75;1.40;;;19.90;99.90;;;;;;5013888;28;20601;-78
2022/06/08 13:05:19;;;;;;;2.55;1.40;;;19.70;99.90;;;;;;5593311;23;20298;-76
2022/06/08 13:07:45;;;;;;;2.92;1.30;;;19.70;99.90;;;;;;5014045;28;20170;-76
2022/06/08 13:10:11;;;;;;;1.83;1.20;;;19.70;99.90;;;;;;5013797;28;20201;-76
2022/06/08 13:12:43;;;;;;;2.00;1.30;;;19.70;99.90;;;;;;5013373;28;20663;-76
2022/06/08 13:15:19;;;;;;;1.50;1.17;;;19.70;99.90;;;;;;4997322;28;20207;-76
2022/06/08 13:17:46;;;;;;;2.58;1.30;;;19.80;99.90;;;;;;5056184;22;20231;-78
2022/06/08 13:20:30;;;;;;;3.08;1.30;;;19.80;99.90;;;;;;5014769;28;20632;-78
2022/06/08 13:22:56;;;;;;;2.67;1.23;;;19.80;99.90;;;;;;5014859;28;20170;-78
2022/06/08 13:25:23;;;;;;;3.47;1.50;;;19.80;99.90;;;;;;5014959;28;20167;-78
2022/06/08 13:27:50;;;;;;;1.55;1.25;;;19.90;99.90;;;;;;5014448;28;20191;-78
2022/06/08 13:30:18;;;;;;;2.05;1.30;;;19.90;99.90;;;;;;5014625;28;20641;-78
2022/06/08 13:32:46;;;;;;;1.88;1.38;;;19.80;99.90;;;;;;5015805;28;20175;-78
2022/06/08 13:35:13;;;;;;;2.50;1.40;;;19.80;99.90;;;;;;4998416;28;20201;-78
2022/06/08 13:37:41;;;;;;;3.28;1.30;;;19.70;99.90;;;;;;4997745;28;20245;-78
2022/06/08 13:40:15;;;;;;;1.40;1.30;;;19.70;99.90;;;;;;5013881;28;20206;-77
2022/06/08 13:42:43;;;;;;;4.43;1.67;;;19.70;99.90;;;;;;5013542;28;20207;-78
2022/06/08 13:45:15;;;;;;;1.95;1.20;;;19.70;99.90;;;;;;4997396;28;20545;-77
2022/06/08 13:47:43;;;;;;;2.50;1.30;;;19.70;99.90;;;;;;4997446;28;20572;-76
2022/06/08 13:50:10;;;;;;;1.38;1.25;;;19.70;99.90;;;;;;5013794;28;20175;-78